Time;durP1;ratioP1;P1;durP2;ratioP2;P2;SDS_P1;SDS_P2;PMS_P1;PMS_P2;Temp;Humidity;BMP_temperature;BMP_pressure;BME280_temperature;BME280_humidity;BME280_pressure;Samples;Min_cycle;Max_cycle;Signal;HPM_P1;HPM_P2
2023/03/14 00:00:54;;;;;;;13.83;4.83;;;;;;;;;;5021377;28;20178;-70
2023/03/14 00:03:20;;;;;;;19.47;3.97;;;;;;;;;;5019209;28;20882;-70
2023/03/14 00:05:45;;;;;;;13.97;4.10;;;;;;;;;;5022389;28;20294;-70
2023/03/14 00:08:11;;;;;;;15.27;4.50;;;;;;;;;;5027805;28;20181;-70
2023/03/14 00:10:36;;;;;;;15.83;3.93;;;;;;;;;;5012268;28;20190;-70
2023/03/14 00:13:02;;;;;;;14.90;3.63;;;;;;;;;;5005104;28;20684;-70
2023/03/14 00:15:27;;;;;;;16.80;3.57;;;;;;;;;;4978438;28;20199;-70
2023/03/14 00:17:52;;;;;;;12.03;3.30;;;;;;;;;;4993040;28;20175;-69
2023/03/14 00:20:17;;;;;;;16.07;3.13;;;;;;;;;;5005737;28;20175;-70
2023/03/14 00:22:43;;;;;;;12.20;2.17;;;;;;;;;;5006886;28;20586;-70
2023/03/14 00:25:09;;;;;;;7.83;2.00;;;;;;;;;;5009894;28;20288;-70
2023/03/14 00:27:34;;;;;;;8.23;2.27;;;;;;;;;;5008330;28;20232;-70
2023/03/14 00:30:00;;;;;;;8.03;1.80;;;;;;;;;;5007842;28;20269;-70
2023/03/14 00:32:25;;;;;;;10.13;1.93;;;;;;;;;;4994368;28;20572;-70
2023/03/14 00:34:50;;;;;;;11.50;1.67;;;;;;;;;;5011028;28;20357;-70
2023/03/14 00:37:15;;;;;;;7.03;1.90;;;;;;;;;;5008885;28;20203;-69
2023/03/14 00:39:41;;;;;;;5.73;2.37;;;;;;;;;;5013720;28;20175;-70
2023/03/14 00:42:06;;;;;;;8.00;2.07;;;;;;;;;;5005718;28;20229;-70
2023/03/14 00:44:31;;;;;;;12.30;3.13;;;;;;;;;;5005374;28;20202;-70
2023/03/14 00:46:57;;;;;;;9.63;2.20;;;;;;;;;;5010718;28;20615;-71
2023/03/14 00:49:22;;;;;;;7.37;2.20;;;;;;;;;;5004027;28;20668;-71
2023/03/14 00:51:47;;;;;;;6.40;2.00;;;;;;;;;;5006636;28;20608;-69
2023/03/14 00:54:12;;;;;;;7.03;1.97;;;;;;;;;;5010434;28;20199;-71
2023/03/14 00:56:37;;;;;;;5.07;2.23;;;;;;;;;;5007579;28;20190;-69
2023/03/14 00:59:03;;;;;;;5.80;1.57;;;;;;;;;;5013002;28;20237;-71
2023/03/14 01:01:28;;;;;;;6.93;1.80;;;;;;;;;;5003316;28;20179;-69
2023/03/14 01:03:54;;;;;;;9.83;1.70;;;;;;;;;;5007365;28;20230;-70
2023/03/14 01:06:23;;;;;;;7.30;2.00;;;;;;;;;;5007380;28;20214;-70
2023/03/14 01:08:49;;;;;;;5.87;2.37;;;;;;;;;;5005590;28;20178;-70
2023/03/14 01:11:16;;;;;;;7.17;2.60;;;;;;;;;;5020243;28;20555;-70
2023/03/14 01:13:42;;;;;;;8.40;2.30;;;;;;;;;;5016655;28;20195;-70
2023/03/14 01:16:08;;;;;;;7.47;2.53;;;;;;;;;;5017445;28;20228;-72
2023/03/14 01:18:35;;;;;;;8.83;2.20;;;;;;;;;;5021996;28;20178;-70
2023/03/14 01:21:00;;;;;;;7.13;2.60;;;;;;;;;;5014028;28;20305;-70
2023/03/14 01:23:25;;;;;;;6.73;2.03;;;;;;;;;;5013934;28;20597;-70
2023/03/14 01:25:50;;;;;;;6.37;2.23;;;;;;;;;;5021617;28;20684;-70
2023/03/14 01:28:16;;;;;;;10.37;2.43;;;;;;;;;;5028485;28;20676;-70
2023/03/14 01:30:41;;;;;;;11.30;2.43;;;;;;;;;;5011182;28;20620;-70
2023/03/14 01:33:06;;;;;;;9.43;2.07;;;;;;;;;;5018290;28;20199;-70
2023/03/14 01:35:31;;;;;;;6.60;2.17;;;;;;;;;;5013527;28;20194;-70
2023/03/14 01:37:57;;;;;;;6.70;1.77;;;;;;;;;;5011065;28;20759;-70
2023/03/14 01:40:22;;;;;;;10.40;2.87;;;;;;;;;;5010816;28;20576;-70
2023/03/14 01:42:54;;;;;;;11.63;2.27;;;;;;;;;;5011716;28;20182;-70
2023/03/14 01:45:38;;;;;;;10.10;2.20;;;;;;;;;;5010486;28;20225;-70
2023/03/14 01:48:03;;;;;;;9.00;2.00;;;;;;;;;;5010808;28;20175;-70
2023/03/14 01:50:28;;;;;;;12.63;2.23;;;;;;;;;;5014409;28;20664;-70
2023/03/14 01:52:55;;;;;;;5.33;1.70;;;;;;;;;;5011338;28;20649;-70
2023/03/14 01:55:23;;;;;;;7.90;2.00;;;;;;;;;;5011794;28;20199;-70
2023/03/14 01:57:51;;;;;;;9.30;2.73;;;;;;;;;;5008980;28;20187;-69
2023/03/14 02:00:18;;;;;;;5.60;1.83;;;;;;;;;;5010255;28;20202;-69
2023/03/14 02:02:48;;;;;;;5.67;1.77;;;;;;;;;;5010603;28;20252;-69
2023/03/14 02:05:15;;;;;;;7.67;2.00;;;;;;;;;;5016573;28;20688;-70
2023/03/14 02:07:43;;;;;;;9.90;1.60;;;;;;;;;;5008731;28;20184;-70
2023/03/14 02:10:09;;;;;;;4.60;2.20;;;;;;;;;;4997287;28;20266;-69
2023/03/14 02:12:35;;;;;;;7.13;1.73;;;;;;;;;;5011409;28;20298;-69
2023/03/14 02:15:00;;;;;;;5.83;1.97;;;;;;;;;;5022570;28;20213;-72
2023/03/14 02:17:25;;;;;;;5.43;1.73;;;;;;;;;;5020249;28;20273;-69
2023/03/14 02:20:00;;;;;;;4.33;1.60;;;;;;;;;;5012305;28;20528;-69
2023/03/14 02:22:25;;;;;;;5.87;1.90;;;;;;;;;;5008710;28;20178;-71
2023/03/14 02:24:50;;;;;;;4.50;1.47;;;;;;;;;;5007171;28;20226;-69
2023/03/14 02:27:17;;;;;;;7.37;1.30;;;;;;;;;;5010567;28;20190;-69
2023/03/14 02:29:48;;;;;;;4.47;2.70;;;;;;;;;;5023055;28;20213;-69
2023/03/14 02:32:14;;;;;;;6.47;1.40;;;;;;;;;;5006692;28;20175;-69
2023/03/14 02:34:42;;;;;;;8.33;1.87;;;;;;;;;;5006046;28;20264;-69
2023/03/14 02:37:07;;;;;;;5.17;1.73;;;;;;;;;;5006309;28;20179;-70
2023/03/14 02:39:38;;;;;;;6.17;2.70;;;;;;;;;;5010727;28;20183;-69
2023/03/14 02:42:03;;;;;;;10.67;2.80;;;;;;;;;;5004845;28;20182;-69
2023/03/14 02:44:28;;;;;;;7.23;1.93;;;;;;;;;;5003713;28;20218;-69
2023/03/14 02:46:53;;;;;;;5.03;2.03;;;;;;;;;;5001689;28;20179;-69
2023/03/14 02:49:18;;;;;;;7.43;2.13;;;;;;;;;;5005310;28;20638;-69
2023/03/14 02:51:44;;;;;;;6.37;1.90;;;;;;;;;;5008576;28;20186;-70
2023/03/14 02:54:10;;;;;;;6.47;2.27;;;;;;;;;;5015433;28;20209;-71
2023/03/14 02:56:36;;;;;;;7.47;2.27;;;;;;;;;;5007124;28;20187;-69
2023/03/14 02:59:02;;;;;;;7.90;2.27;;;;;;;;;;4999385;28;20194;-69
2023/03/14 03:01:27;;;;;;;11.63;3.47;;;;;;;;;;5010149;28;20187;-69
2023/03/14 03:03:53;;;;;;;7.77;2.03;;;;;;;;;;5010182;28;20242;-69
2023/03/14 03:06:18;;;;;;;10.37;2.40;;;;;;;;;;5011046;28;20203;-70
2023/03/14 03:08:43;;;;;;;8.93;2.60;;;;;;;;;;5020504;28;20238;-70
2023/03/14 03:11:08;;;;;;;7.57;3.63;;;;;;;;;;5007623;28;20171;-70
2023/03/14 03:13:34;;;;;;;9.43;2.43;;;;;;;;;;5013877;28;20194;-70
2023/03/14 03:15:59;;;;;;;9.13;2.10;;;;;;;;;;5014460;28;20179;-70
2023/03/14 03:18:25;;;;;;;9.00;1.80;;;;;;;;;;5017231;28;20210;-70
2023/03/14 03:20:50;;;;;;;5.23;2.07;;;;;;;;;;5015037;28;20439;-70
2023/03/14 03:23:15;;;;;;;6.63;3.00;;;;;;;;;;5017644;28;20202;-70
2023/03/14 03:25:40;;;;;;;5.77;1.70;;;;;;;;;;5029457;28;20629;-70
2023/03/14 03:28:07;;;;;;;4.93;2.30;;;;;;;;;;5006519;28;20172;-70
2023/03/14 03:30:33;;;;;;;8.00;2.13;;;;;;;;;;5022711;28;20179;-70
2023/03/14 03:32:59;;;;;;;13.27;2.40;;;;;;;;;;5017824;28;20561;-70
2023/03/14 03:35:24;;;;;;;10.67;2.57;;;;;;;;;;5015111;28;20202;-70
2023/03/14 03:37:49;;;;;;;9.83;2.73;;;;;;;;;;5017913;28;20191;-69
2023/03/14 03:40:14;;;;;;;8.00;2.93;;;;;;;;;;5010987;28;20182;-70
2023/03/14 03:42:39;;;;;;;7.13;2.33;;;;;;;;;;5006949;28;20665;-70
2023/03/14 03:45:05;;;;;;;9.67;2.90;;;;;;;;;;5009114;28;20195;-70
2023/03/14 03:47:31;;;;;;;10.53;2.50;;;;;;;;;;5008197;28;20449;-69
2023/03/14 03:49:56;;;;;;;9.23;3.10;;;;;;;;;;5007019;28;20548;-69
2023/03/14 03:52:21;;;;;;;9.70;2.93;;;;;;;;;;5007425;28;20179;-69
2023/03/14 03:54:46;;;;;;;10.77;2.13;;;;;;;;;;5010485;28;20586;-69
2023/03/14 03:57:11;;;;;;;8.73;2.23;;;;;;;;;;5010273;28;20187;-70
2023/03/14 03:59:39;;;;;;;11.60;2.20;;;;;;;;;;5009283;28;20179;-69
2023/03/14 04:02:05;;;;;;;7.80;2.30;;;;;;;;;;5005406;28;20199;-70
2023/03/14 04:04:30;;;;;;;14.07;2.83;;;;;;;;;;5007244;28;20294;-70
2023/03/14 04:06:55;;;;;;;9.77;3.37;;;;;;;;;;5013806;28;20187;-70
2023/03/14 04:09:20;;;;;;;11.17;3.37;;;;;;;;;;5015268;28;20550;-70
2023/03/14 04:11:45;;;;;;;9.73;2.33;;;;;;;;;;5012926;28;20210;-70
2023/03/14 04:14:10;;;;;;;10.23;3.60;;;;;;;;;;5009497;28;20230;-70
2023/03/14 04:16:36;;;;;;;6.73;1.93;;;;;;;;;;5017894;28;20189;-71
2023/03/14 04:19:02;;;;;;;10.27;2.10;;;;;;;;;;5012819;28;20660;-71
2023/03/14 04:21:27;;;;;;;8.33;2.50;;;;;;;;;;5013275;28;20202;-70
2023/03/14 04:23:52;;;;;;;9.90;3.13;;;;;;;;;;5012127;28;20206;-70
2023/03/14 04:26:17;;;;;;;9.73;2.00;;;;;;;;;;5013153;28;20202;-70
2023/03/14 04:28:43;;;;;;;4.67;2.20;;;;;;;;;;4993774;28;20282;-71
2023/03/14 04:31:08;;;;;;;10.63;2.60;;;;;;;;;;5008160;28;20183;-71
2023/03/14 04:33:34;;;;;;;7.53;2.03;;;;;;;;;;5008484;28;20195;-71
2023/03/14 04:35:59;;;;;;;7.30;1.77;;;;;;;;;;5004851;28;20186;-70
2023/03/14 04:38:24;;;;;;;9.87;2.20;;;;;;;;;;5011399;28;20649;-71
2023/03/14 04:40:49;;;;;;;7.47;2.30;;;;;;;;;;5010735;28;20762;-71
2023/03/14 04:43:15;;;;;;;6.70;2.23;;;;;;;;;;5004836;28;20175;-69
2023/03/14 04:45:43;;;;;;;4.57;1.93;;;;;;;;;;5009959;28;20201;-69
2023/03/14 04:48:09;;;;;;;9.07;2.80;;;;;;;;;;5007736;28;20198;-69
2023/03/14 04:50:34;;;;;;;8.00;2.40;;;;;;;;;;5009298;28;20640;-69
2023/03/14 04:52:59;;;;;;;6.90;2.60;;;;;;;;;;5008118;28;20280;-69
2023/03/14 04:55:24;;;;;;;8.80;2.50;;;;;;;;;;5012458;28;20689;-69
2023/03/14 04:57:49;;;;;;;7.83;2.10;;;;;;;;;;5006484;28;20187;-70
2023/03/14 05:00:17;;;;;;;4.07;2.07;;;;;;;;;;5001643;28;20186;-70
2023/03/14 05:02:43;;;;;;;6.27;2.43;;;;;;;;;;5009972;28;20209;-70
2023/03/14 05:05:08;;;;;;;5.37;2.40;;;;;;;;;;5007891;28;20704;-70
2023/03/14 05:07:33;;;;;;;5.60;2.03;;;;;;;;;;5014526;28;20187;-70
2023/03/14 05:09:58;;;;;;;9.10;2.63;;;;;;;;;;4997102;22;20686;-74
2023/03/14 05:12:23;;;;;;;5.20;2.30;;;;;;;;;;4987927;28;22279;-74
2023/03/14 05:14:49;;;;;;;9.80;3.37;;;;;;;;;;5006851;28;20254;-74
2023/03/14 05:17:14;;;;;;;7.33;2.70;;;;;;;;;;4991803;28;20211;-74
2023/03/14 05:19:40;;;;;;;4.93;2.47;;;;;;;;;;4997072;28;20194;-74
2023/03/14 05:22:05;;;;;;;6.30;2.53;;;;;;;;;;4989837;28;20708;-75
2023/03/14 05:24:31;;;;;;;18.77;2.87;;;;;;;;;;4987626;28;20180;-74
2023/03/14 05:26:56;;;;;;;4.23;2.50;;;;;;;;;;4984934;28;20231;-75
2023/03/14 05:29:21;;;;;;;8.63;2.77;;;;;;;;;;4984641;28;20245;-75
2023/03/14 05:31:46;;;;;;;4.20;2.23;;;;;;;;;;4989778;28;20192;-75
2023/03/14 05:34:11;;;;;;;7.60;2.70;;;;;;;;;;4988118;28;20594;-75
2023/03/14 05:36:37;;;;;;;6.20;2.40;;;;;;;;;;4992251;28;20234;-75
2023/03/14 05:39:03;;;;;;;5.27;3.23;;;;;;;;;;4994238;28;20286;-75
2023/03/14 05:41:29;;;;;;;5.03;2.87;;;;;;;;;;4994775;28;20322;-75
2023/03/14 05:43:54;;;;;;;8.90;3.20;;;;;;;;;;4983978;28;20187;-74
2023/03/14 05:46:19;;;;;;;4.80;3.10;;;;;;;;;;4990263;28;20218;-75
2023/03/14 05:48:44;;;;;;;7.87;4.13;;;;;;;;;;4986831;28;20255;-75
2023/03/14 05:51:09;;;;;;;7.17;3.73;;;;;;;;;;4992116;28;20182;-75
2023/03/14 05:53:35;;;;;;;11.23;4.10;;;;;;;;;;4993889;28;20178;-75
2023/03/14 05:56:00;;;;;;;7.77;3.93;;;;;;;;;;4993131;28;20183;-75
2023/03/14 05:58:25;;;;;;;13.10;4.23;;;;;;;;;;4990998;28;20191;-76
2023/03/14 06:00:50;;;;;;;7.97;4.07;;;;;;;;;;4987980;28;20164;-76
2023/03/14 06:03:16;;;;;;;8.57;4.10;;;;;;;;;;4983119;28;20187;-75
2023/03/14 06:05:41;;;;;;;7.80;4.40;;;;;;;;;;4983261;28;20266;-76
2023/03/14 06:08:06;;;;;;;6.70;4.60;;;;;;;;;;4985293;28;20270;-75
2023/03/14 06:10:31;;;;;;;7.43;4.80;;;;;;;;;;4988991;28;20562;-75
2023/03/14 06:12:56;;;;;;;12.03;4.67;;;;;;;;;;4983954;28;20679;-76
2023/03/14 06:15:22;;;;;;;7.93;4.23;;;;;;;;;;4990292;28;20221;-76
2023/03/14 06:17:47;;;;;;;4.53;2.43;;;;;;;;;;4987526;28;20171;-77
2023/03/14 06:20:12;;;;;;;4.27;2.03;;;;;;;;;;4995784;28;20258;-76
2023/03/14 06:22:38;;;;;;;4.63;1.10;;;;;;;;;;4988163;28;20237;-78
2023/03/14 06:25:03;;;;;;;2.67;1.00;;;;;;;;;;4991300;28;20213;-79
2023/03/14 06:27:29;;;;;;;1.23;0.60;;;;;;;;;;4990545;28;20649;-77
2023/03/14 06:29:54;;;;;;;1.83;0.70;;;;;;;;;;4994277;28;20203;-77
2023/03/14 06:32:20;;;;;;;1.77;0.80;;;;;;;;;;4982644;28;20183;-77
2023/03/14 06:34:45;;;;;;;1.57;0.90;;;;;;;;;;4988025;28;20234;-77
2023/03/14 06:37:10;;;;;;;1.10;0.77;;;;;;;;;;4983499;28;20604;-77
2023/03/14 06:39:37;;;;;;;4.13;1.00;;;;;;;;;;4985992;28;20543;-77
2023/03/14 06:42:02;;;;;;;3.10;1.10;;;;;;;;;;4991408;28;20180;-77
2023/03/14 06:44:27;;;;;;;2.63;0.80;;;;;;;;;;4991244;28;20175;-77
2023/03/14 06:46:53;;;;;;;3.70;1.57;;;;;;;;;;4980478;28;20261;-77
2023/03/14 06:49:18;;;;;;;3.63;1.40;;;;;;;;;;4990427;28;20736;-77
2023/03/14 06:51:43;;;;;;;4.03;1.30;;;;;;;;;;4985194;28;20183;-77
2023/03/14 06:54:08;;;;;;;1.37;0.90;;;;;;;;;;4991684;28;20168;-76
2023/03/14 06:56:34;;;;;;;5.87;1.37;;;;;;;;;;4988044;28;20187;-76
2023/03/14 06:58:59;;;;;;;3.30;1.33;;;;;;;;;;4984350;28;20259;-76
2023/03/14 07:01:25;;;;;;;3.10;0.93;;;;;;;;;;4975870;28;20271;-76
2023/03/14 07:03:51;;;;;;;2.33;1.10;;;;;;;;;;4984698;28;20257;-76
2023/03/14 07:06:16;;;;;;;2.40;0.87;;;;;;;;;;4986328;28;20673;-77
2023/03/14 07:08:41;;;;;;;2.47;1.30;;;;;;;;;;4984205;28;20338;-75
2023/03/14 07:11:07;;;;;;;2.63;1.20;;;;;;;;;;4991807;28;20171;-75
2023/03/14 07:13:32;;;;;;;4.03;1.20;;;;;;;;;;4981289;28;20180;-76
2023/03/14 07:15:57;;;;;;;4.70;1.30;;;;;;;;;;5002512;28;20183;-76
2023/03/14 07:18:22;;;;;;;2.47;1.07;;;;;;;;;;4982714;28;20279;-77
2023/03/14 07:20:47;;;;;;;4.77;2.17;;;;;;;;;;4986436;28;20174;-76
2023/03/14 07:23:13;;;;;;;6.23;1.50;;;;;;;;;;4991183;28;20188;-76
2023/03/14 07:25:38;;;;;;;4.13;1.20;;;;;;;;;;4993372;28;20708;-76
2023/03/14 07:28:03;;;;;;;3.13;0.80;;;;;;;;;;4993236;28;20179;-76
2023/03/14 07:30:29;;;;;;;3.53;0.87;;;;;;;;;;5000438;28;20180;-76
2023/03/14 07:32:54;;;;;;;1.50;0.80;;;;;;;;;;4988531;28;20243;-76
2023/03/14 07:35:19;;;;;;;1.37;0.60;;;;;;;;;;4991523;28;20248;-76
2023/03/14 07:37:44;;;;;;;4.57;1.00;;;;;;;;;;4987283;28;20507;-76
2023/03/14 07:40:12;;;;;;;8.80;1.30;;;;;;;;;;4982622;28;20203;-76
2023/03/14 07:42:37;;;;;;;2.80;0.93;;;;;;;;;;4991892;28;20720;-76
2023/03/14 07:45:02;;;;;;;2.93;0.87;;;;;;;;;;4992119;28;20207;-76
2023/03/14 07:47:28;;;;;;;0.90;0.70;;;;;;;;;;4992283;28;20180;-76
2023/03/14 07:49:53;;;;;;;3.30;0.80;;;;;;;;;;4993343;28;20246;-75
2023/03/14 07:52:18;;;;;;;2.50;0.60;;;;;;;;;;4983255;28;20172;-77
2023/03/14 07:54:43;;;;;;;2.90;0.73;;;;;;;;;;4983313;28;20168;-76
2023/03/14 07:57:09;;;;;;;2.33;1.20;;;;;;;;;;4994616;28;20190;-76
2023/03/14 07:59:34;;;;;;;2.40;0.90;;;;;;;;;;4986630;28;20207;-77
2023/03/14 08:01:59;;;;;;;1.93;0.90;;;;;;;;;;4982482;28;20180;-76
2023/03/14 08:04:24;;;;;;;4.33;0.97;;;;;;;;;;4986324;28;20631;-77
2023/03/14 08:06:49;;;;;;;2.27;1.00;;;;;;;;;;4990303;28;20199;-75
2023/03/14 08:09:15;;;;;;;2.77;0.77;;;;;;;;;;4989731;28;20203;-75
2023/03/14 08:11:40;;;;;;;3.67;0.80;;;;;;;;;;4996483;28;20645;-75
2023/03/14 08:14:05;;;;;;;7.70;1.40;;;;;;;;;;5000210;28;20182;-75
2023/03/14 08:16:30;;;;;;;1.97;1.10;;;;;;;;;;5002981;28;20182;-75
2023/03/14 08:18:56;;;;;;;5.00;1.30;;;;;;;;;;4994371;28;20253;-75
2023/03/14 08:21:21;;;;;;;2.47;1.00;;;;;;;;;;4991675;28;20175;-75
2023/03/14 08:23:46;;;;;;;3.13;0.67;;;;;;;;;;4996120;28;20592;-75
2023/03/14 08:26:12;;;;;;;1.37;0.60;;;;;;;;;;4991048;28;20214;-75
2023/03/14 08:28:37;;;;;;;5.27;0.67;;;;;;;;;;4999115;28;20556;-75
2023/03/14 08:31:02;;;;;;;3.07;0.77;;;;;;;;;;4998585;28;20267;-75
2023/03/14 08:33:28;;;;;;;4.13;1.03;;;;;;;;;;4995451;28;20654;-75
2023/03/14 08:35:54;;;;;;;1.97;0.60;;;;;;;;;;4993790;28;20184;-75
2023/03/14 08:38:19;;;;;;;1.70;0.67;;;;;;;;;;4994262;28;20183;-75
2023/03/14 08:40:44;;;;;;;3.40;0.77;;;;;;;;;;5000320;28;20206;-74
2023/03/14 08:43:09;;;;;;;4.40;1.03;;;;;;;;;;5013440;28;20179;-74
2023/03/14 08:45:34;;;;;;;0.67;0.40;;;;;;;;;;5000448;28;20692;-75
2023/03/14 08:48:00;;;;;;;3.50;0.57;;;;;;;;;;4999658;28;20386;-74
2023/03/14 08:50:25;;;;;;;1.53;0.40;;;;;;;;;;4995674;28;20215;-75
2023/03/14 08:52:50;;;;;;;2.27;0.77;;;;;;;;;;4994535;28;20202;-74
2023/03/14 08:55:15;;;;;;;3.00;0.70;;;;;;;;;;4992713;28;20676;-75
2023/03/14 08:57:40;;;;;;;4.20;0.87;;;;;;;;;;4993413;28;20187;-75
2023/03/14 09:00:15;;;;;;;2.00;0.67;;;;;;;;;;4996050;28;20199;-74
2023/03/14 09:02:41;;;;;;;3.40;1.43;;;;;;;;;;4992640;28;20190;-74
2023/03/14 09:05:06;;;;;;;2.97;0.60;;;;;;;;;;4991734;28;20200;-75
2023/03/14 09:07:31;;;;;;;1.97;0.87;;;;;;;;;;4995382;28;20184;-74
2023/03/14 09:09:57;;;;;;;4.70;1.27;;;;;;;;;;4996853;28;20207;-74
2023/03/14 09:12:22;;;;;;;7.70;1.33;;;;;;;;;;4997228;28;20195;-74
2023/03/14 09:14:47;;;;;;;10.47;1.60;;;;;;;;;;4987988;28;20172;-74
2023/03/14 09:17:12;;;;;;;5.53;1.00;;;;;;;;;;4996957;28;20172;-75
2023/03/14 09:19:37;;;;;;;7.00;1.63;;;;;;;;;;4994739;28;20615;-75
2023/03/14 09:22:03;;;;;;;5.43;2.17;;;;;;;;;;4995312;28;20176;-74
2023/03/14 09:24:28;;;;;;;5.80;2.00;;;;;;;;;;4994956;28;20207;-74
2023/03/14 09:26:54;;;;;;;12.23;2.50;;;;;;;;;;4997170;28;20196;-74
2023/03/14 09:29:20;;;;;;;10.57;1.80;;;;;;;;;;4994262;28;20250;-74
2023/03/14 09:31:45;;;;;;;8.20;1.57;;;;;;;;;;4978551;28;20191;-74
2023/03/14 09:34:11;;;;;;;6.63;1.40;;;;;;;;;;4996473;28;20604;-74
2023/03/14 09:36:38;;;;;;;8.67;1.80;;;;;;;;;;4994973;28;20195;-74
2023/03/14 09:39:04;;;;;;;6.40;1.30;;;;;;;;;;4995612;28;20211;-74
2023/03/14 09:41:37;;;;;;;9.83;1.77;;;;;;;;;;5002371;28;20282;-74
2023/03/14 09:44:05;;;;;;;9.87;2.07;;;;;;;;;;4994456;28;20179;-74
2023/03/14 09:46:31;;;;;;;5.30;1.63;;;;;;;;;;4990666;28;20203;-74
2023/03/14 09:48:57;;;;;;;9.73;2.13;;;;;;;;;;4987626;28;20222;-74
2023/03/14 09:51:23;;;;;;;8.37;2.20;;;;;;;;;;4990646;28;20664;-73
2023/03/14 09:53:49;;;;;;;8.43;2.10;;;;;;;;;;4993585;28;20179;-74
2023/03/14 09:56:19;;;;;;;9.27;2.00;;;;;;;;;;4990946;28;20303;-74
2023/03/14 09:58:47;;;;;;;10.33;2.07;;;;;;;;;;4995175;28;20203;-74
2023/03/14 10:01:14;;;;;;;10.10;2.37;;;;;;;;;;4992793;28;20175;-74
2023/03/14 10:03:41;;;;;;;13.63;2.83;;;;;;;;;;4993283;28;20525;-75
2023/03/14 10:06:11;;;;;;;11.93;2.30;;;;;;;;;;4999731;28;20204;-75
2023/03/14 10:08:38;;;;;;;11.77;2.87;;;;;;;;;;4987710;28;20721;-75
2023/03/14 10:11:03;;;;;;;10.60;2.33;;;;;;;;;;4992280;28;20699;-75
2023/03/14 10:13:29;;;;;;;14.30;2.20;;;;;;;;;;4998887;28;20179;-75
2023/03/14 10:15:55;;;;;;;14.13;2.53;;;;;;;;;;4993844;28;20179;-75
2023/03/14 10:18:23;;;;;;;9.23;2.10;;;;;;;;;;4992270;28;20180;-75
2023/03/14 10:20:49;;;;;;;9.13;1.83;;;;;;;;;;4991487;28;20179;-75
2023/03/14 10:23:15;;;;;;;7.67;1.67;;;;;;;;;;5007275;28;20175;-75
2023/03/14 10:25:41;;;;;;;9.07;1.80;;;;;;;;;;4987092;28;20720;-75
2023/03/14 10:28:26;;;;;;;7.83;1.83;;;;;;;;;;5004925;28;20176;-75
2023/03/14 10:30:51;;;;;;;8.43;2.30;;;;;;;;;;4987718;28;20190;-75
2023/03/14 10:33:27;;;;;;;9.57;2.03;;;;;;;;;;4983625;28;20176;-75
2023/03/14 10:35:57;;;;;;;10.93;2.90;;;;;;;;;;4994848;28;20202;-75
2023/03/14 10:38:24;;;;;;;7.33;2.30;;;;;;;;;;4999580;28;20195;-75
2023/03/14 10:40:52;;;;;;;17.63;2.07;;;;;;;;;;4995185;28;20207;-75
2023/03/14 10:43:21;;;;;;;11.50;2.87;;;;;;;;;;4996436;28;20171;-75
2023/03/14 10:45:51;;;;;;;12.33;2.77;;;;;;;;;;4999350;28;20199;-75
2023/03/14 10:48:21;;;;;;;19.20;3.70;;;;;;;;;;4991051;28;20218;-75
2023/03/14 10:50:54;;;;;;;20.33;2.77;;;;;;;;;;4999829;28;20172;-75
2023/03/14 10:53:19;;;;;;;11.13;2.57;;;;;;;;;;4991781;28;20168;-75
2023/03/14 10:55:45;;;;;;;11.20;1.93;;;;;;;;;;5003106;28;20276;-74
2023/03/14 10:58:19;;;;;;;12.27;2.63;;;;;;;;;;4999040;28;20178;-74
2023/03/14 11:00:46;;;;;;;8.20;2.50;;;;;;;;;;4991093;28;20325;-74
2023/03/14 11:03:12;;;;;;;21.67;2.87;;;;;;;;;;4992510;28;20199;-74
2023/03/14 11:05:44;;;;;;;14.27;3.03;;;;;;;;;;4992364;28;20262;-74
2023/03/14 11:08:17;;;;;;;14.60;2.37;;;;;;;;;;4994648;28;20645;-75
2023/03/14 11:10:45;;;;;;;14.87;3.23;;;;;;;;;;5009000;22;20226;-68
2023/03/14 11:13:16;;;;;;;14.57;2.53;;;;;;;;;;5005410;28;20179;-68
2023/03/14 11:16:00;;;;;;;13.10;2.53;;;;;;;;;;5005020;28;20575;-69
2023/03/14 11:18:34;;;;;;;12.07;2.70;;;;;;;;;;5008687;28;20179;-68
2023/03/14 11:21:06;;;;;;;14.47;2.10;;;;;;;;;;4977512;28;20179;-69
2023/03/14 11:23:50;;;;;;;14.17;2.53;;;;;;;;;;4987104;28;20717;-68
2023/03/14 11:26:21;;;;;;;15.00;3.37;;;;;;;;;;4982740;28;20708;-68
2023/03/14 11:28:50;;;;;;;13.77;2.43;;;;;;;;;;4989561;28;20246;-69
2023/03/14 11:31:18;;;;;;;6.93;2.20;;;;;;;;;;4985247;28;20646;-68
2023/03/14 11:33:50;;;;;;;14.73;3.50;;;;;;;;;;4982273;28;20184;-68
2023/03/14 11:36:19;;;;;;;9.67;3.03;;;;;;;;;;4985782;28;20180;-68
2023/03/14 11:38:52;;;;;;;11.80;2.53;;;;;;;;;;4978969;28;20600;-68
2023/03/14 11:41:23;;;;;;;16.53;2.67;;;;;;;;;;4984826;28;20184;-68
2023/03/14 11:43:53;;;;;;;9.77;2.00;;;;;;;;;;4989086;28;20183;-68
2023/03/14 11:46:22;;;;;;;12.83;1.97;;;;;;;;;;4987364;28;20228;-69
2023/03/14 11:49:01;;;;;;;8.43;2.37;;;;;;;;;;4988244;28;20199;-68
2023/03/14 11:51:33;;;;;;;9.07;1.80;;;;;;;;;;4985356;28;20174;-68
2023/03/14 11:54:02;;;;;;;7.03;1.50;;;;;;;;;;4981872;28;20214;-68
2023/03/14 11:56:27;;;;;;;5.90;1.80;;;;;;;;;;4993055;28;20270;-69
2023/03/14 11:58:56;;;;;;;11.30;2.63;;;;;;;;;;4989498;28;20677;-68
2023/03/14 12:01:23;;;;;;;11.03;1.67;;;;;;;;;;4984205;28;20179;-68
2023/03/14 12:03:51;;;;;;;7.67;1.40;;;;;;;;;;4983497;28;20184;-68
2023/03/14 12:06:33;;;;;;;5.90;1.20;;;;;;;;;;4989234;28;20196;-68
2023/03/14 12:09:00;;;;;;;5.77;1.33;;;;;;;;;;4988667;28;20275;-68
2023/03/14 12:11:44;;;;;;;13.40;1.83;;;;;;;;;;4986711;28;20203;-68
2023/03/14 12:14:19;;;;;;;6.87;1.53;;;;;;;;;;4981835;28;20179;-68
2023/03/14 12:16:46;;;;;;;8.03;1.87;;;;;;;;;;4988951;28;20222;-68
2023/03/14 12:19:14;;;;;;;4.63;1.10;;;;;;;;;;4988412;28;20262;-68
2023/03/14 12:21:57;;;;;;;6.87;2.00;;;;;;;;;;4988879;28;20188;-68
2023/03/14 12:24:24;;;;;;;9.43;2.03;;;;;;;;;;4985150;28;20187;-68
2023/03/14 12:26:53;;;;;;;10.23;1.70;;;;;;;;;;4989015;28;20212;-68
2023/03/14 12:29:18;;;;;;;7.90;2.05;;;;;;;;;;4986841;28;20200;-69
2023/03/14 12:31:47;;;;;;;10.87;2.70;;;;;;;;;;4986508;28;20180;-68
2023/03/14 12:34:12;;;;;;;8.37;1.83;;;;;;;;;;4991446;28;20242;-68
2023/03/14 12:36:49;;;;;;;4.90;1.30;;;;;;;;;;4984292;28;20658;-68
2023/03/14 12:39:24;;;;;;;9.37;1.77;;;;;;;;;;4973917;28;20215;-68
2023/03/14 12:41:52;;;;;;;7.30;1.50;;;;;;;;;;4961651;28;20192;-68
2023/03/14 12:44:37;;;;;;;7.17;1.63;;;;;;;;;;4983231;28;20186;-69
2023/03/14 12:47:35;;;;;;;5.53;1.40;;;;;;;;;;4967656;28;20225;-68
2023/03/14 12:50:06;;;;;;;4.17;1.40;;;;;;;;;;4992231;28;20225;-68
2023/03/14 12:52:41;;;;;;;4.43;1.48;;;;;;;;;;4984620;28;20180;-68
2023/03/14 12:55:10;;;;;;;5.93;1.63;;;;;;;;;;4979901;28;20205;-68
2023/03/14 12:57:39;;;;;;;6.93;1.20;;;;;;;;;;4984460;28;20195;-68
2023/03/14 13:00:21;;;;;;;5.43;1.07;;;;;;;;;;4986523;28;20211;-68
2023/03/14 13:02:48;;;;;;;7.93;1.23;;;;;;;;;;4963295;28;20193;-68
2023/03/14 13:05:20;;;;;;;3.70;0.80;;;;;;;;;;4976162;28;20200;-68
2023/03/14 13:07:45;;;;;;;8.67;1.70;;;;;;;;;;4988091;28;20187;-68
2023/03/14 13:10:11;;;;;;;5.82;1.40;;;;;;;;;;4980738;28;20212;-69
2023/03/14 13:12:48;;;;;;;5.97;1.42;;;;;;;;;;4987626;28;20263;-69
2023/03/14 13:15:25;;;;;;;4.97;1.50;;;;;;;;;;4984368;28;20182;-69
2023/03/14 13:17:51;;;;;;;6.07;1.40;;;;;;;;;;4989039;28;20193;-69
2023/03/14 13:20:26;;;;;;;6.47;1.37;;;;;;;;;;4987164;28;20203;-69
2023/03/14 13:22:51;;;;;;;7.00;1.47;;;;;;;;;;4957240;28;20177;-69
2023/03/14 13:25:18;;;;;;;4.30;1.37;;;;;;;;;;4978266;28;20255;-69
2023/03/14 13:27:43;;;;;;;3.07;1.00;;;;;;;;;;4984347;28;20182;-68
2023/03/14 13:30:17;;;;;;;4.33;1.10;;;;;;;;;;4988251;28;20606;-68
2023/03/14 13:32:43;;;;;;;2.77;1.53;;;;;;;;;;4983897;28;20180;-69
2023/03/14 13:35:21;;;;;;;3.40;1.67;;;;;;;;;;4983703;28;20267;-69
2023/03/14 13:37:46;;;;;;;4.63;1.17;;;;;;;;;;4987183;28;20194;-70
2023/03/14 13:40:23;;;;;;;5.30;1.67;;;;;;;;;;4976465;28;20208;-70
2023/03/14 13:42:49;;;;;;;6.47;1.17;;;;;;;;;;4972544;28;20183;-67
2023/03/14 13:45:14;;;;;;;10.17;1.20;;;;;;;;;;4985355;28;20206;-68
2023/03/14 13:47:40;;;;;;;1.83;1.10;;;;;;;;;;4973236;28;20204;-69
2023/03/14 13:50:05;;;;;;;6.03;1.77;;;;;;;;;;4975221;28;20258;-69
2023/03/14 13:52:30;;;;;;;8.67;1.50;;;;;;;;;;4962018;28;20714;-69
2023/03/14 13:54:56;;;;;;;7.90;2.23;;;;;;;;;;4983646;28;20633;-69
2023/03/14 13:57:22;;;;;;;8.07;1.50;;;;;;;;;;4988764;28;20172;-69
2023/03/14 14:00:09;;;;;;;8.23;1.50;;;;;;;;;;4982664;28;20196;-69
2023/03/14 14:02:37;;;;;;;5.33;1.00;;;;;;;;;;4981894;28;20188;-69
2023/03/14 14:05:03;;;;;;;8.03;1.30;;;;;;;;;;4982272;28;20178;-69
2023/03/14 14:07:28;;;;;;;5.03;1.00;;;;;;;;;;4984200;28;20615;-70
2023/03/14 14:09:53;;;;;;;4.60;1.10;;;;;;;;;;4982617;28;20299;-69
2023/03/14 14:12:24;;;;;;;5.43;1.03;;;;;;;;;;4972051;28;20235;-69
2023/03/14 14:14:49;;;;;;;6.60;1.50;;;;;;;;;;4988149;28;20180;-69
2023/03/14 14:17:18;;;;;;;4.07;1.40;;;;;;;;;;4986181;28;20168;-69
2023/03/14 14:19:44;;;;;;;5.60;1.33;;;;;;;;;;4985994;28;20847;-69
2023/03/14 14:22:10;;;;;;;3.50;1.23;;;;;;;;;;4987495;28;20266;-69
2023/03/14 14:24:36;;;;;;;4.33;1.00;;;;;;;;;;4984591;28;20187;-68
2023/03/14 14:27:07;;;;;;;5.47;1.00;;;;;;;;;;4977004;28;20342;-68
2023/03/14 14:29:33;;;;;;;4.33;0.90;;;;;;;;;;4983168;28;20218;-69
2023/03/14 14:32:18;;;;;;;4.73;0.93;;;;;;;;;;4983573;28;20271;-69
2023/03/14 14:34:51;;;;;;;5.77;1.90;;;;;;;;;;4988252;28;20262;-68
2023/03/14 14:37:23;;;;;;;5.90;1.20;;;;;;;;;;4977313;28;20191;-68
2023/03/14 14:39:49;;;;;;;9.77;1.20;;;;;;;;;;4986725;28;20275;-69